sensor_id;sensor_type;location;lat;lon;timestamp;pressure;altitude;pressure_sealevel;temperature;humidity
12879;BME280;20617;49.476;10.986;2022-07-29T00:00:07;98051.38;;;23.51;35.75
12879;BME280;20617;49.476;10.986;2022-07-29T00:02:12;98055.00;;;23.50;35.31
12879;BME280;20617;49.476;10.986;2022-07-29T00:04:17;98048.03;;;23.49;35.38
12879;BME280;20617;49.476;10.986;2022-07-29T00:06:22;98048.03;;;23.49;35.43
12879;BME280;20617;49.476;10.986;2022-07-29T00:08:30;98042.91;;;23.47;35.28
12879;BME280;20617;49.476;10.986;2022-07-29T00:10:34;98038.53;;;23.46;34.89
12879;BME280;20617;49.476;10.986;2022-07-29T00:12:39;98041.91;;;23.48;35.06
12879;BME280;20617;49.476;10.986;2022-07-29T00:14:44;98040.59;;;23.53;34.90
12879;BME280;20617;49.476;10.986;2022-07-29T00:16:49;98033.19;;;23.56;34.96
12879;BME280;20617;49.476;10.986;2022-07-29T00:18:54;98034.97;;;23.56;34.67
12879;BME280;20617;49.476;10.986;2022-07-29T00:21:02;98029.31;;;23.50;34.82
12879;BME280;20617;49.476;10.986;2022-07-29T00:23:10;98024.75;;;23.43;34.80
12879;BME280;20617;49.476;10.986;2022-07-29T00:25:17;98023.75;;;23.44;35.32
12879;BME280;20617;49.476;10.986;2022-07-29T00:27:22;98030.44;;;23.48;34.60
12879;BME280;20617;49.476;10.986;2022-07-29T00:29:26;98023.81;;;23.52;34.83
12879;BME280;20617;49.476;10.986;2022-07-29T00:31:35;98024.22;;;23.57;34.62
12879;BME280;20617;49.476;10.986;2022-07-29T00:33:39;98022.56;;;23.56;34.55
12879;BME280;20617;49.476;10.986;2022-07-29T00:35:44;98016.69;;;23.53;34.89
12879;BME280;20617;49.476;10.986;2022-07-29T00:37:46;98008.06;;;23.50;34.82
12879;BME280;20617;49.476;10.986;2022-07-29T00:39:51;98006.34;;;23.49;34.83
12879;BME280;20617;49.476;10.986;2022-07-29T00:41:58;98007.34;;;23.48;35.14
12879;BME280;20617;49.476;10.986;2022-07-29T00:44:03;98004.53;;;23.50;34.57
12879;BME280;20617;49.476;10.986;2022-07-29T00:46:07;97999.78;;;23.54;34.71
12879;BME280;20617;49.476;10.986;2022-07-29T00:48:12;98010.09;;;23.57;34.85
12879;BME280;20617;49.476;10.986;2022-07-29T00:50:17;98005.59;;;23.57;34.83
12879;BME280;20617;49.476;10.986;2022-07-29T00:52:22;98009.09;;;23.58;34.52
12879;BME280;20617;49.476;10.986;2022-07-29T00:54:26;98008.09;;;23.59;34.64
12879;BME280;20617;49.476;10.986;2022-07-29T00:56:32;98002.13;;;23.57;34.53
12879;BME280;20617;49.476;10.986;2022-07-29T00:58:39;98003.25;;;23.54;34.73
12879;BME280;20617;49.476;10.986;2022-07-29T01:00:44;98007.19;;;23.50;34.46
12879;BME280;20617;49.476;10.986;2022-07-29T01:02:49;98010.31;;;23.45;35.10
12879;BME280;20617;49.476;10.986;2022-07-29T01:04:53;98012.50;;;23.50;34.69
12879;BME280;20617;49.476;10.986;2022-07-29T01:06:58;98026.16;;;23.55;34.66
12879;BME280;20617;49.476;10.986;2022-07-29T01:09:04;98028.84;;;23.55;34.55
12879;BME280;20617;49.476;10.986;2022-07-29T01:11:10;98027.00;;;23.56;34.19
12879;BME280;20617;49.476;10.986;2022-07-29T01:13:15;98030.34;;;23.58;34.43
12879;BME280;20617;49.476;10.986;2022-07-29T01:15:23;98021.25;;;23.60;34.20
12879;BME280;20617;49.476;10.986;2022-07-29T01:17:28;98018.72;;;23.59;34.17
12879;BME280;20617;49.476;10.986;2022-07-29T01:19:44;98017.75;;;23.60;34.46
12879;BME280;20617;49.476;10.986;2022-07-29T01:21:50;98018.41;;;23.62;34.63
12879;BME280;20617;49.476;10.986;2022-07-29T01:24:01;98018.97;;;23.65;34.53
12879;BME280;20617;49.476;10.986;2022-07-29T01:26:17;98016.97;;;23.67;34.51
12879;BME280;20617;49.476;10.986;2022-07-29T01:28:42;98025.41;;;23.63;34.67
12879;BME280;20617;49.476;10.986;2022-07-29T01:30:51;98014.09;;;23.61;34.68
12879;BME280;20617;49.476;10.986;2022-07-29T01:33:00;98022.25;;;23.59;34.70
12879;BME280;20617;49.476;10.986;2022-07-29T01:35:07;98016.06;;;23.59;34.64
12879;BME280;20617;49.476;10.986;2022-07-29T01:37:15;98011.22;;;23.54;34.97
12879;BME280;20617;49.476;10.986;2022-07-29T01:39:23;98008.63;;;23.44;35.30
12879;BME280;20617;49.476;10.986;2022-07-29T01:41:34;98010.94;;;23.39;35.37
12879;BME280;20617;49.476;10.986;2022-07-29T01:43:44;98022.81;;;23.35;35.16
12879;BME280;20617;49.476;10.986;2022-07-29T01:45:56;98010.84;;;23.31;35.62
12879;BME280;20617;49.476;10.986;2022-07-29T01:48:02;98013.63;;;23.30;35.41
12879;BME280;20617;49.476;10.986;2022-07-29T01:50:08;98015.75;;;23.26;35.77
12879;BME280;20617;49.476;10.986;2022-07-29T01:52:15;98023.72;;;23.26;35.39
12879;BME280;20617;49.476;10.986;2022-07-29T01:54:24;98022.22;;;23.23;35.46
12879;BME280;20617;49.476;10.986;2022-07-29T01:56:30;98019.03;;;23.20;35.67
12879;BME280;20617;49.476;10.986;2022-07-29T01:58:36;98004.00;;;23.11;36.11
12879;BME280;20617;49.476;10.986;2022-07-29T02:00:45;98002.47;;;23.08;35.90
12879;BME280;20617;49.476;10.986;2022-07-29T02:02:51;97990.78;;;23.01;35.99
12879;BME280;20617;49.476;10.986;2022-07-29T02:04:57;97991.50;;;22.93;36.39
12879;BME280;20617;49.476;10.986;2022-07-29T02:07:03;97993.22;;;22.85;36.59
12879;BME280;20617;49.476;10.986;2022-07-29T02:09:09;97995.78;;;22.76;36.56
12879;BME280;20617;49.476;10.986;2022-07-29T02:11:14;97996.06;;;22.73;36.52
12879;BME280;20617;49.476;10.986;2022-07-29T02:13:19;97998.88;;;22.72;36.64
12879;BME280;20617;49.476;10.986;2022-07-29T02:15:26;97994.53;;;22.71;36.83
12879;BME280;20617;49.476;10.986;2022-07-29T02:17:35;98003.81;;;22.67;37.00
12879;BME280;20617;49.476;10.986;2022-07-29T02:19:43;98000.31;;;22.66;36.64
12879;BME280;20617;49.476;10.986;2022-07-29T02:21:48;98009.94;;;22.67;36.57
12879;BME280;20617;49.476;10.986;2022-07-29T02:23:56;98002.97;;;22.66;36.80
12879;BME280;20617;49.476;10.986;2022-07-29T02:26:03;98007.72;;;22.63;37.15
12879;BME280;20617;49.476;10.986;2022-07-29T02:28:10;97996.56;;;22.59;37.30
12879;BME280;20617;49.476;10.986;2022-07-29T02:30:16;97997.69;;;22.56;36.94
12879;BME280;20617;49.476;10.986;2022-07-29T02:32:21;97996.84;;;22.56;36.90
12879;BME280;20617;49.476;10.986;2022-07-29T02:34:30;97992.84;;;22.52;37.26
12879;BME280;20617;49.476;10.986;2022-07-29T02:36:35;97993.56;;;22.44;36.88
12879;BME280;20617;49.476;10.986;2022-07-29T02:38:40;97999.69;;;22.45;37.14
12879;BME280;20617;49.476;10.986;2022-07-29T02:40:53;97995.09;;;22.47;36.85
12879;BME280;20617;49.476;10.986;2022-07-29T02:43:00;97994.91;;;22.48;36.86
12879;BME280;20617;49.476;10.986;2022-07-29T02:45:06;97988.66;;;22.49;36.99
12879;BME280;20617;49.476;10.986;2022-07-29T02:47:12;97989.78;;;22.47;37.41
12879;BME280;20617;49.476;10.986;2022-07-29T02:49:25;97998.16;;;22.42;37.31
12879;BME280;20617;49.476;10.986;2022-07-29T02:51:38;97988.84;;;22.38;37.35
12879;BME280;20617;49.476;10.986;2022-07-29T02:53:45;97997.38;;;22.32;37.15
12879;BME280;20617;49.476;10.986;2022-07-29T02:55:54;97994.47;;;22.25;37.83
12879;BME280;20617;49.476;10.986;2022-07-29T02:58:00;98000.91;;;22.23;37.22
12879;BME280;20617;49.476;10.986;2022-07-29T03:00:06;97998.25;;;22.23;37.60
12879;BME280;20617;49.476;10.986;2022-07-29T03:02:13;98009.81;;;22.22;37.48
12879;BME280;20617;49.476;10.986;2022-07-29T03:04:18;98008.97;;;22.21;37.85
12879;BME280;20617;49.476;10.986;2022-07-29T03:06:24;98013.59;;;22.19;37.32
12879;BME280;20617;49.476;10.986;2022-07-29T03:08:42;97999.75;;;22.15;37.88
12879;BME280;20617;49.476;10.986;2022-07-29T03:10:46;98008.84;;;22.13;37.92
12879;BME280;20617;49.476;10.986;2022-07-29T03:12:52;98010.66;;;22.12;38.07
12879;BME280;20617;49.476;10.986;2022-07-29T03:14:56;98003.16;;;22.08;38.15
12879;BME280;20617;49.476;10.986;2022-07-29T03:17:02;98009.84;;;22.02;38.29
12879;BME280;20617;49.476;10.986;2022-07-29T03:19:07;98007.63;;;21.98;38.04
12879;BME280;20617;49.476;10.986;2022-07-29T03:21:12;98004.72;;;21.91;38.51
12879;BME280;20617;49.476;10.986;2022-07-29T03:23:18;98003.72;;;21.92;38.23
12879;BME280;20617;49.476;10.986;2022-07-29T03:25:26;98003.72;;;21.92;38.40
12879;BME280;20617;49.476;10.986;2022-07-29T03:27:32;98007.91;;;21.95;38.39
12879;BME280;20617;49.476;10.986;2022-07-29T03:29:36;98006.78;;;21.97;38.22
12879;BME280;20617;49.476;10.986;2022-07-29T03:31:46;98010.97;;;22.00;37.93
12879;BME280;20617;49.476;10.986;2022-07-29T03:33:51;98005.50;;;22.01;37.84
12879;BME280;20617;49.476;10.986;2022-07-29T03:35:56;98005.50;;;22.01;38.30
12879;BME280;20617;49.476;10.986;2022-07-29T03:38:00;98003.16;;;21.98;37.93
12879;BME280;20617;49.476;10.986;2022-07-29T03:40:06;97993.66;;;21.96;38.04
12879;BME280;20617;49.476;10.986;2022-07-29T03:42:15;97984.63;;;21.88;38.17
12879;BME280;20617;49.476;10.986;2022-07-29T03:44:20;97990.22;;;21.85;38.31
12879;BME280;20617;49.476;10.986;2022-07-29T03:46:26;97992.44;;;21.80;38.30
12879;BME280;20617;49.476;10.986;2022-07-29T03:48:33;97993.72;;;21.76;38.46
12879;BME280;20617;49.476;10.986;2022-07-29T03:50:38;98002.78;;;21.74;38.86
12879;BME280;20617;49.476;10.986;2022-07-29T03:52:43;97996.34;;;21.66;38.80
12879;BME280;20617;49.476;10.986;2022-07-29T03:54:48;97999.16;;;21.65;38.69
12879;BME280;20617;49.476;10.986;2022-07-29T03:56:53;98008.94;;;21.64;39.01
12879;BME280;20617;49.476;10.986;2022-07-29T03:59:01;98010.03;;;21.62;39.20
12879;BME280;20617;49.476;10.986;2022-07-29T04:01:06;98012.69;;;21.62;38.95
12879;BME280;20617;49.476;10.986;2022-07-29T04:03:11;98013.38;;;21.64;38.95
12879;BME280;20617;49.476;10.986;2022-07-29T04:05:17;98011.16;;;21.59;39.03
12879;BME280;20617;49.476;10.986;2022-07-29T04:07:21;98018.28;;;21.59;39.14
12879;BME280;20617;49.476;10.986;2022-07-29T04:09:26;98013.81;;;21.59;38.81
12879;BME280;20617;49.476;10.986;2022-07-29T04:11:31;98012.97;;;21.59;38.68
12879;BME280;20617;49.476;10.986;2022-07-29T04:13:55;98010.88;;;21.62;38.90
12879;BME280;20617;49.476;10.986;2022-07-29T04:16:03;98015.06;;;21.65;38.36
12879;BME280;20617;49.476;10.986;2022-07-29T04:18:08;98015.59;;;21.68;38.30
12879;BME280;20617;49.476;10.986;2022-07-29T04:20:12;98012.25;;;21.66;38.30
12879;BME280;20617;49.476;10.986;2022-07-29T04:22:17;98017.25;;;21.69;38.47
12879;BME280;20617;49.476;10.986;2022-07-29T04:24:23;98012.84;;;21.70;38.21
12879;BME280;20617;49.476;10.986;2022-07-29T04:26:28;98012.84;;;21.70;38.01
12879;BME280;20617;49.476;10.986;2022-07-29T04:28:32;98016.97;;;21.73;38.40
12879;BME280;20617;49.476;10.986;2022-07-29T04:30:37;98011.56;;;21.74;38.08
12879;BME280;20617;49.476;10.986;2022-07-29T04:32:45;98030.81;;;21.76;38.05
12879;BME280;20617;49.476;10.986;2022-07-29T04:34:49;98025.22;;;21.79;37.88
12879;BME280;20617;49.476;10.986;2022-07-29T04:36:54;98031.91;;;21.83;38.20
12879;BME280;20617;49.476;10.986;2022-07-29T04:38:59;98032.44;;;21.87;38.04
12879;BME280;20617;49.476;10.986;2022-07-29T04:41:04;98032.88;;;21.92;37.68
12879;BME280;20617;49.476;10.986;2022-07-29T04:43:11;98028.41;;;21.92;37.78
12879;BME280;20617;49.476;10.986;2022-07-29T04:45:16;98036.34;;;21.92;37.35
12879;BME280;20617;49.476;10.986;2022-07-29T04:47:23;98032.75;;;21.93;37.91
12879;BME280;20617;49.476;10.986;2022-07-29T04:49:30;98031.06;;;21.92;38.00
12879;BME280;20617;49.476;10.986;2022-07-29T04:51:34;98031.34;;;21.89;38.01
12879;BME280;20617;49.476;10.986;2022-07-29T04:53:39;98033.03;;;21.90;37.86
12879;BME280;20617;49.476;10.986;2022-07-29T04:55:44;98038.34;;;21.90;37.62
12879;BME280;20617;49.476;10.986;2022-07-29T04:57:48;98038.88;;;21.94;37.82
12879;BME280;20617;49.476;10.986;2022-07-29T04:59:53;98037.88;;;21.95;37.88
12879;BME280;20617;49.476;10.986;2022-07-29T05:01:58;98035.25;;;21.95;37.57
12879;BME280;20617;49.476;10.986;2022-07-29T05:04:02;98043.06;;;21.97;38.04
12879;BME280;20617;49.476;10.986;2022-07-29T05:06:10;98045.72;;;21.97;37.85
12879;BME280;20617;49.476;10.986;2022-07-29T05:08:14;98038.72;;;21.96;37.78
12879;BME280;20617;49.476;10.986;2022-07-29T05:10:19;98043.91;;;21.97;37.91
12879;BME280;20617;49.476;10.986;2022-07-29T05:12:24;98045.56;;;21.98;38.04
12879;BME280;20617;49.476;10.986;2022-07-29T05:14:29;98049.31;;;21.96;38.34
12879;BME280;20617;49.476;10.986;2022-07-29T05:16:33;98042.34;;;21.95;38.34
12879;BME280;20617;49.476;10.986;2022-07-29T05:18:38;98048.94;;;21.90;38.71
12879;BME280;20617;49.476;10.986;2022-07-29T05:20:43;98043.63;;;21.90;38.84
12879;BME280;20617;49.476;10.986;2022-07-29T05:22:53;98044.59;;;21.89;38.97
12879;BME280;20617;49.476;10.986;2022-07-29T05:24:57;98038.88;;;21.94;38.93
12879;BME280;20617;49.476;10.986;2022-07-29T05:27:09;98040.38;;;22.06;38.65
12879;BME280;20617;49.476;10.986;2022-07-29T05:29:14;98046.09;;;22.21;38.22
12879;BME280;20617;49.476;10.986;2022-07-29T05:33:45;98048.38;;;22.53;37.62
12879;BME280;20617;49.476;10.986;2022-07-29T05:35:49;98045.97;;;22.70;37.10
12879;BME280;20617;49.476;10.986;2022-07-29T05:38:03;98043.34;;;22.88;37.92
12879;BME280;20617;49.476;10.986;2022-07-29T05:40:08;98045.56;;;23.02;38.05
12879;BME280;20617;49.476;10.986;2022-07-29T05:42:13;98043.97;;;23.09;37.83
12879;BME280;20617;49.476;10.986;2022-07-29T05:44:18;98041.31;;;23.09;37.62
12879;BME280;20617;49.476;10.986;2022-07-29T05:46:26;98040.63;;;23.07;37.35
12879;BME280;20617;49.476;10.986;2022-07-29T05:48:30;98046.78;;;23.08;37.17
12879;BME280;20617;49.476;10.986;2022-07-29T05:50:35;98043.44;;;23.05;37.39
12879;BME280;20617;49.476;10.986;2022-07-29T05:52:48;98043.59;;;23.04;37.24
12879;BME280;20617;49.476;10.986;2022-07-29T05:54:56;98046.38;;;23.02;37.58
12879;BME280;20617;49.476;10.986;2022-07-29T05:57:04;98050.56;;;23.05;37.35
12879;BME280;20617;49.476;10.986;2022-07-29T05:59:09;98043.00;;;23.10;37.14
12879;BME280;20617;49.476;10.986;2022-07-29T06:01:18;98035.97;;;23.19;36.98
12879;BME280;20617;49.476;10.986;2022-07-29T06:03:23;98031.88;;;23.24;37.43
12879;BME280;20617;49.476;10.986;2022-07-29T06:05:28;98031.69;;;23.26;37.81
12879;BME280;20617;49.476;10.986;2022-07-29T06:07:32;98035.59;;;23.32;37.43
12879;BME280;20617;49.476;10.986;2022-07-29T06:09:39;98037.63;;;23.38;37.50
12879;BME280;20617;49.476;10.986;2022-07-29T06:11:46;98038.31;;;23.40;37.22
12879;BME280;20617;49.476;10.986;2022-07-29T06:13:51;98041.28;;;23.37;37.16
12879;BME280;20617;49.476;10.986;2022-07-29T06:15:55;98041.28;;;23.37;37.32
12879;BME280;20617;49.476;10.986;2022-07-29T06:18:00;98039.31;;;23.39;37.25
12879;BME280;20617;49.476;10.986;2022-07-29T06:20:05;98041.19;;;23.46;37.30
12879;BME280;20617;49.476;10.986;2022-07-29T06:22:11;98041.91;;;23.48;37.53
12879;BME280;20617;49.476;10.986;2022-07-29T06:24:15;98038.50;;;23.56;37.54
12879;BME280;20617;49.476;10.986;2022-07-29T06:26:20;98031.69;;;23.62;37.46
12879;BME280;20617;49.476;10.986;2022-07-29T06:28:35;98036.38;;;23.78;37.43
12879;BME280;20617;49.476;10.986;2022-07-29T06:30:39;98029.13;;;23.88;37.22
12879;BME280;20617;49.476;10.986;2022-07-29T06:32:44;98028.81;;;23.91;37.41
12879;BME280;20617;49.476;10.986;2022-07-29T06:34:49;98036.09;;;24.07;37.25
12879;BME280;20617;49.476;10.986;2022-07-29T06:37:12;98038.41;;;24.28;36.48
12879;BME280;20617;49.476;10.986;2022-07-29T06:39:17;98030.69;;;24.43;36.46
12879;BME280;20617;49.476;10.986;2022-07-29T06:41:21;98039.75;;;24.58;36.65
12879;BME280;20617;49.476;10.986;2022-07-29T06:43:26;98036.16;;;24.67;36.12
12879;BME280;20617;49.476;10.986;2022-07-29T06:45:35;98036.50;;;24.72;36.45
12879;BME280;20617;49.476;10.986;2022-07-29T06:47:43;98039.53;;;24.77;36.58
12879;BME280;20617;49.476;10.986;2022-07-29T06:49:48;98036.06;;;24.85;36.56
12879;BME280;20617;49.476;10.986;2022-07-29T06:51:52;98040.75;;;24.91;36.67
12879;BME280;20617;49.476;10.986;2022-07-29T06:53:57;98042.44;;;25.00;36.22
12879;BME280;20617;49.476;10.986;2022-07-29T06:56:04;98041.81;;;25.06;36.20
12879;BME280;20617;49.476;10.986;2022-07-29T06:58:09;98042.88;;;25.14;36.30
12879;BME280;20617;49.476;10.986;2022-07-29T07:00:15;98042.03;;;25.21;36.25
12879;BME280;20617;49.476;10.986;2022-07-29T07:02:23;98043.72;;;25.30;35.82
12879;BME280;20617;49.476;10.986;2022-07-29T07:04:28;98036.91;;;25.36;36.17
12879;BME280;20617;49.476;10.986;2022-07-29T07:06:33;98038.41;;;25.39;35.86
12879;BME280;20617;49.476;10.986;2022-07-29T07:08:38;98036.44;;;25.41;36.28
12879;BME280;20617;49.476;10.986;2022-07-29T07:10:42;98043.78;;;25.47;36.47
12879;BME280;20617;49.476;10.986;2022-07-29T07:12:47;98041.94;;;25.47;36.10
12879;BME280;20617;49.476;10.986;2022-07-29T07:14:52;98048.09;;;25.56;36.03
12879;BME280;20617;49.476;10.986;2022-07-29T07:16:56;98037.28;;;25.58;36.43
12879;BME280;20617;49.476;10.986;2022-07-29T07:19:04;98037.47;;;25.64;36.18
12879;BME280;20617;49.476;10.986;2022-07-29T07:21:09;98035.13;;;25.69;36.41
12879;BME280;20617;49.476;10.986;2022-07-29T07:23:19;98036.97;;;25.69;36.51
12879;BME280;20617;49.476;10.986;2022-07-29T07:25:24;98032.97;;;25.73;36.37
12879;BME280;20617;49.476;10.986;2022-07-29T07:27:29;98038.31;;;25.81;36.31
12879;BME280;20617;49.476;10.986;2022-07-29T07:29:34;98037.19;;;25.84;36.46
12879;BME280;20617;49.476;10.986;2022-07-29T07:31:38;98035.00;;;25.87;36.81
12879;BME280;20617;49.476;10.986;2022-07-29T07:33:43;98035.50;;;25.91;36.40
12879;BME280;20617;49.476;10.986;2022-07-29T07:35:50;98031.31;;;25.96;36.25
12879;BME280;20617;49.476;10.986;2022-07-29T07:37:55;98036.31;;;26.00;36.22
12879;BME280;20617;49.476;10.986;2022-07-29T07:40:00;98026.66;;;25.99;36.30
12879;BME280;20617;49.476;10.986;2022-07-29T07:42:05;98033.66;;;26.00;36.40
12879;BME280;20617;49.476;10.986;2022-07-29T07:44:11;98027.84;;;26.04;36.04
12879;BME280;20617;49.476;10.986;2022-07-29T07:46:16;98030.66;;;26.11;36.04
12879;BME280;20617;49.476;10.986;2022-07-29T07:48:21;98034.13;;;26.19;35.90
12879;BME280;20617;49.476;10.986;2022-07-29T07:50:26;98027.78;;;26.29;36.12
12879;BME280;20617;49.476;10.986;2022-07-29T07:52:33;98027.09;;;26.35;36.10
12879;BME280;20617;49.476;10.986;2022-07-29T07:54:38;98028.09;;;26.42;35.49
12879;BME280;20617;49.476;10.986;2022-07-29T07:56:42;98027.56;;;26.47;35.61
12879;BME280;20617;49.476;10.986;2022-07-29T07:58:48;98020.22;;;26.49;35.68
12879;BME280;20617;49.476;10.986;2022-07-29T08:00:53;98028.09;;;26.42;35.78
12879;BME280;20617;49.476;10.986;2022-07-29T08:02:58;98029.25;;;26.48;35.63
12879;BME280;20617;49.476;10.986;2022-07-29T08:05:03;98031.94;;;26.56;35.43
12879;BME280;20617;49.476;10.986;2022-07-29T08:07:13;98022.03;;;26.64;35.40
12879;BME280;20617;49.476;10.986;2022-07-29T08:09:20;98022.84;;;26.73;35.00
12879;BME280;20617;49.476;10.986;2022-07-29T08:11:30;98024.78;;;26.87;34.95
12879;BME280;20617;49.476;10.986;2022-07-29T08:13:39;98021.09;;;26.97;35.07
12879;BME280;20617;49.476;10.986;2022-07-29T08:15:44;98017.66;;;27.11;34.73
12879;BME280;20617;49.476;10.986;2022-07-29T08:17:49;98019.81;;;27.24;34.38
12879;BME280;20617;49.476;10.986;2022-07-29T08:19:53;98022.44;;;27.32;34.43
12879;BME280;20617;49.476;10.986;2022-07-29T08:21:58;98017.38;;;27.37;34.08
12879;BME280;20617;49.476;10.986;2022-07-29T08:24:03;98029.38;;;27.41;34.54
12879;BME280;20617;49.476;10.986;2022-07-29T08:26:23;98020.53;;;27.41;34.15
12879;BME280;20617;49.476;10.986;2022-07-29T08:28:27;98023.00;;;27.42;34.01
12879;BME280;20617;49.476;10.986;2022-07-29T08:30:32;98018.28;;;27.52;33.90
12879;BME280;20617;49.476;10.986;2022-07-29T08:32:36;98018.22;;;27.61;33.93
12879;BME280;20617;49.476;10.986;2022-07-29T08:34:55;98017.41;;;27.75;33.86
12879;BME280;20617;49.476;10.986;2022-07-29T08:36:59;98019.53;;;27.88;33.68
12879;BME280;20617;49.476;10.986;2022-07-29T08:39:04;98014.69;;;28.06;33.39
12879;BME280;20617;49.476;10.986;2022-07-29T08:41:09;98015.53;;;28.21;32.89
12879;BME280;20617;49.476;10.986;2022-07-29T08:43:16;98012.41;;;28.33;32.89
12879;BME280;20617;49.476;10.986;2022-07-29T08:45:23;98017.78;;;28.48;32.38
12879;BME280;20617;49.476;10.986;2022-07-29T08:47:29;98015.41;;;28.67;32.59
12879;BME280;20617;49.476;10.986;2022-07-29T08:49:34;98016.22;;;28.83;32.20
12879;BME280;20617;49.476;10.986;2022-07-29T08:51:39;98016.66;;;29.01;31.87
12879;BME280;20617;49.476;10.986;2022-07-29T08:53:50;98012.94;;;29.17;31.65
12879;BME280;20617;49.476;10.986;2022-07-29T08:55:55;98012.84;;;29.25;31.44
12879;BME280;20617;49.476;10.986;2022-07-29T08:57:59;98008.19;;;29.34;31.04
12879;BME280;20617;49.476;10.986;2022-07-29T09:00:08;98003.75;;;29.26;31.05
12879;BME280;20617;49.476;10.986;2022-07-29T09:02:15;98008.00;;;29.36;31.00
12879;BME280;20617;49.476;10.986;2022-07-29T09:04:22;98008.78;;;29.29;30.88
12879;BME280;20617;49.476;10.986;2022-07-29T09:06:30;98006.91;;;29.30;31.04
12879;BME280;20617;49.476;10.986;2022-07-29T09:08:35;98005.50;;;29.34;30.58
12879;BME280;20617;49.476;10.986;2022-07-29T09:10:40;98004.72;;;29.40;30.45
12879;BME280;20617;49.476;10.986;2022-07-29T09:12:45;97999.25;;;29.48;30.31
12879;BME280;20617;49.476;10.986;2022-07-29T09:14:50;98003.97;;;29.46;30.13
12879;BME280;20617;49.476;10.986;2022-07-29T09:16:57;98001.88;;;29.42;30.29
12879;BME280;20617;49.476;10.986;2022-07-29T09:19:02;97997.19;;;29.29;29.74
12879;BME280;20617;49.476;10.986;2022-07-29T09:21:23;98002.44;;;29.16;30.56
12879;BME280;20617;49.476;10.986;2022-07-29T09:23:40;98000.97;;;28.98;30.69
12879;BME280;20617;49.476;10.986;2022-07-29T09:25:45;97998.94;;;29.00;31.05
12879;BME280;20617;49.476;10.986;2022-07-29T09:27:50;98002.16;;;28.96;31.13
12879;BME280;20617;49.476;10.986;2022-07-29T09:29:55;98003.56;;;29.06;30.74
12879;BME280;20617;49.476;10.986;2022-07-29T09:32:05;98000.41;;;29.18;30.23
12879;BME280;20617;49.476;10.986;2022-07-29T09:34:11;97997.63;;;29.11;30.12
12879;BME280;20617;49.476;10.986;2022-07-29T09:36:15;97992.34;;;29.18;30.08
12879;BME280;20617;49.476;10.986;2022-07-29T09:38:20;97989.34;;;29.27;29.57
12879;BME280;20617;49.476;10.986;2022-07-29T09:40:25;97995.88;;;29.40;29.09
12879;BME280;20617;49.476;10.986;2022-07-29T09:42:30;97991.47;;;29.53;28.95
12879;BME280;20617;49.476;10.986;2022-07-29T09:44:42;97988.75;;;29.68;28.70
12879;BME280;20617;49.476;10.986;2022-07-29T09:46:56;97994.81;;;29.77;28.66
12879;BME280;20617;49.476;10.986;2022-07-29T09:49:10;97987.94;;;29.96;28.32
12879;BME280;20617;49.476;10.986;2022-07-29T09:51:17;97995.06;;;30.10;28.13
12879;BME280;20617;49.476;10.986;2022-07-29T09:53:31;97988.59;;;30.05;27.83
12879;BME280;20617;49.476;10.986;2022-07-29T09:55:46;97990.16;;;30.14;27.56
12879;BME280;20617;49.476;10.986;2022-07-29T09:57:52;97989.00;;;30.23;27.79
12879;BME280;20617;49.476;10.986;2022-07-29T09:59:57;97986.78;;;30.33;27.60
12879;BME280;20617;49.476;10.986;2022-07-29T10:02:12;97995.03;;;30.32;27.56
12879;BME280;20617;49.476;10.986;2022-07-29T10:04:28;97988.78;;;30.25;27.14
12879;BME280;20617;49.476;10.986;2022-07-29T10:06:54;97986.59;;;30.13;27.48
12879;BME280;20617;49.476;10.986;2022-07-29T10:09:08;97993.53;;;30.01;27.54
12879;BME280;20617;49.476;10.986;2022-07-29T10:11:14;97984.84;;;29.99;27.83
12879;BME280;20617;49.476;10.986;2022-07-29T10:13:19;97986.84;;;29.90;27.82
12879;BME280;20617;49.476;10.986;2022-07-29T10:15:24;97987.91;;;29.68;28.00
12879;BME280;20617;49.476;10.986;2022-07-29T10:17:29;97984.91;;;29.77;28.00
12879;BME280;20617;49.476;10.986;2022-07-29T10:19:38;97988.31;;;29.93;28.35
12879;BME280;20617;49.476;10.986;2022-07-29T10:21:44;97982.34;;;29.91;27.77
12879;BME280;20617;49.476;10.986;2022-07-29T10:23:49;97987.88;;;29.89;27.99
12879;BME280;20617;49.476;10.986;2022-07-29T10:25:55;97985.84;;;29.91;27.74
12879;BME280;20617;49.476;10.986;2022-07-29T10:28:00;97985.16;;;29.83;27.77
12879;BME280;20617;49.476;10.986;2022-07-29T10:30:05;97975.09;;;29.91;27.82
12879;BME280;20617;49.476;10.986;2022-07-29T10:32:20;97974.97;;;29.99;28.13
12879;BME280;20617;49.476;10.986;2022-07-29T10:34:31;97969.09;;;30.17;27.51
12879;BME280;20617;49.476;10.986;2022-07-29T10:36:47;97965.59;;;30.17;27.67
12879;BME280;20617;49.476;10.986;2022-07-29T10:39:00;97971.03;;;30.23;27.65
12879;BME280;20617;49.476;10.986;2022-07-29T10:41:13;97964.44;;;30.26;27.30
12879;BME280;20617;49.476;10.986;2022-07-29T10:43:33;97961.66;;;30.19;27.41
12879;BME280;20617;49.476;10.986;2022-07-29T10:45:42;97967.25;;;30.18;27.58
12879;BME280;20617;49.476;10.986;2022-07-29T10:48:01;97954.63;;;30.18;27.57
12879;BME280;20617;49.476;10.986;2022-07-29T10:50:08;97959.56;;;30.15;27.63
12879;BME280;20617;49.476;10.986;2022-07-29T10:52:20;97957.59;;;30.23;27.70
12879;BME280;20617;49.476;10.986;2022-07-29T10:54:37;97961.34;;;30.29;27.14
12879;BME280;20617;49.476;10.986;2022-07-29T10:56:44;97955.97;;;30.29;26.89
12879;BME280;20617;49.476;10.986;2022-07-29T10:59:00;97953.69;;;30.26;27.29
12879;BME280;20617;49.476;10.986;2022-07-29T11:01:28;97943.75;;;29.98;27.05
12879;BME280;20617;49.476;10.986;2022-07-29T11:03:42;97949.22;;;29.84;26.79
12879;BME280;20617;49.476;10.986;2022-07-29T11:05:54;97939.50;;;29.76;26.74